sensor_id;sensor_type;location;lat;lon;timestamp;pressure;altitude;pressure_sealevel;temperature;humidity
9141;BME280;46330;50.822;7.126;2023-05-29T00:01:44;101288.94;;;16.07;70.54
9141;BME280;46330;50.822;7.126;2023-05-29T00:04:13;101281.38;;;15.97;71.21
9141;BME280;46330;50.822;7.126;2023-05-29T00:06:41;101292.22;;;15.88;71.66
9141;BME280;46330;50.822;7.126;2023-05-29T00:09:09;101292.34;;;15.83;71.76
9141;BME280;46330;50.822;7.126;2023-05-29T00:11:37;101297.72;;;15.80;71.65
9141;BME280;46330;50.822;7.126;2023-05-29T00:14:06;101299.56;;;15.78;72.16
9141;BME280;46330;50.822;7.126;2023-05-29T00:16:34;101293.69;;;15.69;72.76
9141;BME280;46330;50.822;7.126;2023-05-29T00:19:04;101297.31;;;15.65;72.98
9141;BME280;46330;50.822;7.126;2023-05-29T00:21:34;101291.59;;;15.50;74.08
9141;BME280;46330;50.822;7.126;2023-05-29T00:24:02;101289.03;;;15.46;74.50
9141;BME280;46330;50.822;7.126;2023-05-29T00:26:30;101287.47;;;15.39;74.97
9141;BME280;46330;50.822;7.126;2023-05-29T00:28:58;101294.66;;;15.34;75.20
9141;BME280;46330;50.822;7.126;2023-05-29T00:31:26;101300.28;;;15.22;75.71
9141;BME280;46330;50.822;7.126;2023-05-29T00:33:55;101304.00;;;15.15;76.27
9141;BME280;46330;50.822;7.126;2023-05-29T00:36:23;101309.16;;;15.19;76.51
9141;BME280;46330;50.822;7.126;2023-05-29T00:38:53;101306.34;;;15.25;76.23
9141;BME280;46330;50.822;7.126;2023-05-29T00:41:21;101298.53;;;15.22;76.03
9141;BME280;46330;50.822;7.126;2023-05-29T00:43:49;101302.91;;;15.22;76.44
9141;BME280;46330;50.822;7.126;2023-05-29T00:46:17;101305.66;;;15.17;76.73
9141;BME280;46330;50.822;7.126;2023-05-29T00:48:47;101305.72;;;15.16;76.81
9141;BME280;46330;50.822;7.126;2023-05-29T00:51:16;101310.25;;;15.11;76.55
9141;BME280;46330;50.822;7.126;2023-05-29T00:53:44;101305.19;;;15.03;76.82
9141;BME280;46330;50.822;7.126;2023-05-29T00:56:14;101319.41;;;14.97;77.23
9141;BME280;46330;50.822;7.126;2023-05-29T00:58:43;101308.72;;;15.02;78.02
9141;BME280;46330;50.822;7.126;2023-05-29T01:01:11;101307.78;;;15.04;77.98
9141;BME280;46330;50.822;7.126;2023-05-29T01:03:40;101304.19;;;15.07;77.89
9141;BME280;46330;50.822;7.126;2023-05-29T01:06:09;101309.50;;;15.05;77.75
9141;BME280;46330;50.822;7.126;2023-05-29T01:08:37;101299.09;;;15.01;77.99
9141;BME280;46330;50.822;7.126;2023-05-29T01:11:11;101299.25;;;14.95;78.49
9141;BME280;46330;50.822;7.126;2023-05-29T01:13:44;101300.19;;;14.92;78.47
9141;BME280;46330;50.822;7.126;2023-05-29T01:16:20;101303.94;;;14.84;78.45
9141;BME280;46330;50.822;7.126;2023-05-29T01:18:54;101308.59;;;14.73;79.59
9141;BME280;46330;50.822;7.126;2023-05-29T01:21:27;101312.41;;;14.63;80.56
9141;BME280;46330;50.822;7.126;2023-05-29T01:24:17;101322.25;;;14.54;80.91
9141;BME280;46330;50.822;7.126;2023-05-29T01:26:55;101316.25;;;14.48;81.35
9141;BME280;46330;50.822;7.126;2023-05-29T01:29:29;101323.25;;;14.49;81.46
9141;BME280;46330;50.822;7.126;2023-05-29T01:31:58;101322.38;;;14.48;81.61
9141;BME280;46330;50.822;7.126;2023-05-29T01:34:28;101313.69;;;14.45;81.24
9141;BME280;46330;50.822;7.126;2023-05-29T01:36:56;101327.81;;;14.42;81.86
9141;BME280;46330;50.822;7.126;2023-05-29T01:39:25;101321.66;;;14.43;82.13
9141;BME280;46330;50.822;7.126;2023-05-29T01:41:55;101317.34;;;14.39;81.68
9141;BME280;46330;50.822;7.126;2023-05-29T01:44:24;101321.00;;;14.34;82.00
9141;BME280;46330;50.822;7.126;2023-05-29T01:46:53;101323.75;;;14.28;82.36
9141;BME280;46330;50.822;7.126;2023-05-29T01:49:22;101325.56;;;14.24;82.71
9141;BME280;46330;50.822;7.126;2023-05-29T01:51:51;101325.72;;;14.18;82.67
9141;BME280;46330;50.822;7.126;2023-05-29T01:54:19;101325.81;;;14.14;82.62
9141;BME280;46330;50.822;7.126;2023-05-29T01:56:47;101330.56;;;13.98;83.63
9141;BME280;46330;50.822;7.126;2023-05-29T01:59:19;101322.78;;;13.93;84.14
9141;BME280;46330;50.822;7.126;2023-05-29T02:01:47;101328.78;;;13.98;83.92
9141;BME280;46330;50.822;7.126;2023-05-29T02:04:15;101324.59;;;13.91;84.23
9141;BME280;46330;50.822;7.126;2023-05-29T02:06:43;101332.34;;;13.96;84.08
9141;BME280;46330;50.822;7.126;2023-05-29T02:09:11;101329.81;;;13.93;84.75
9141;BME280;46330;50.822;7.126;2023-05-29T02:11:40;101338.97;;;13.75;85.13
9141;BME280;46330;50.822;7.126;2023-05-29T02:14:12;101338.97;;;13.75;84.98
9141;BME280;46330;50.822;7.126;2023-05-29T02:16:41;101345.22;;;13.68;86.00
9141;BME280;46330;50.822;7.126;2023-05-29T02:19:10;101350.31;;;13.77;84.61
9141;BME280;46330;50.822;7.126;2023-05-29T02:21:39;101349.47;;;13.75;84.39
9141;BME280;46330;50.822;7.126;2023-05-29T02:24:07;101352.97;;;13.76;84.93
9141;BME280;46330;50.822;7.126;2023-05-29T02:26:35;101361.84;;;13.70;84.55
9141;BME280;46330;50.822;7.126;2023-05-29T02:29:04;101360.94;;;13.73;84.70
9141;BME280;46330;50.822;7.126;2023-05-29T02:31:33;101365.34;;;13.71;84.29
9141;BME280;46330;50.822;7.126;2023-05-29T02:34:05;101360.19;;;13.66;84.15
9141;BME280;46330;50.822;7.126;2023-05-29T02:36:33;101364.53;;;13.67;83.62
9141;BME280;46330;50.822;7.126;2023-05-29T02:39:04;101367.38;;;13.57;84.08
9141;BME280;46330;50.822;7.126;2023-05-29T02:41:32;101365.78;;;13.50;84.05
9141;BME280;46330;50.822;7.126;2023-05-29T02:44:00;101368.28;;;13.56;83.67
9141;BME280;46330;50.822;7.126;2023-05-29T02:46:28;101374.47;;;13.52;83.58
9141;BME280;46330;50.822;7.126;2023-05-29T02:48:56;101377.34;;;13.41;84.02
9141;BME280;46330;50.822;7.126;2023-05-29T02:51:25;101386.09;;;13.41;83.90
9141;BME280;46330;50.822;7.126;2023-05-29T02:53:54;101388.06;;;13.29;84.53
9141;BME280;46330;50.822;7.126;2023-05-29T02:56:22;101385.56;;;13.21;84.42
9141;BME280;46330;50.822;7.126;2023-05-29T02:58:50;101383.84;;;13.20;84.40
9141;BME280;46330;50.822;7.126;2023-05-29T03:01:18;101389.19;;;13.14;84.42
9141;BME280;46330;50.822;7.126;2023-05-29T03:03:48;101384.94;;;13.07;83.98
9141;BME280;46330;50.822;7.126;2023-05-29T03:06:16;101386.69;;;13.08;83.89
9141;BME280;46330;50.822;7.126;2023-05-29T03:08:45;101377.84;;;13.14;83.52
9141;BME280;46330;50.822;7.126;2023-05-29T03:11:14;101379.59;;;13.13;83.13
9141;BME280;46330;50.822;7.126;2023-05-29T03:13:42;101384.00;;;13.11;83.91
9141;BME280;46330;50.822;7.126;2023-05-29T03:16:13;101388.72;;;12.91;83.72
9141;BME280;46330;50.822;7.126;2023-05-29T03:18:43;101387.00;;;12.87;83.34
9141;BME280;46330;50.822;7.126;2023-05-29T03:21:12;101394.84;;;12.91;83.23
9141;BME280;46330;50.822;7.126;2023-05-29T03:23:40;101395.72;;;12.92;83.74
9141;BME280;46330;50.822;7.126;2023-05-29T03:26:09;101400.13;;;12.88;83.22
9141;BME280;46330;50.822;7.126;2023-05-29T03:28:40;101395.03;;;12.79;83.49
9141;BME280;46330;50.822;7.126;2023-05-29T03:31:09;101395.91;;;12.78;83.95
9141;BME280;46330;50.822;7.126;2023-05-29T03:33:37;101399.66;;;12.62;83.99
9141;BME280;46330;50.822;7.126;2023-05-29T03:36:21;101399.72;;;12.61;84.31
9141;BME280;46330;50.822;7.126;2023-05-29T03:38:49;101404.97;;;12.61;83.99
9141;BME280;46330;50.822;7.126;2023-05-29T03:41:19;101410.94;;;12.67;83.88
9141;BME280;46330;50.822;7.126;2023-05-29T03:43:50;101411.09;;;12.58;83.92
9141;BME280;46330;50.822;7.126;2023-05-29T03:46:20;101412.84;;;12.59;83.91
9141;BME280;46330;50.822;7.126;2023-05-29T03:48:48;101409.38;;;12.56;83.58
9141;BME280;46330;50.822;7.126;2023-05-29T03:51:16;101408.53;;;12.55;83.44
9141;BME280;46330;50.822;7.126;2023-05-29T03:53:44;101411.28;;;12.46;84.51
9141;BME280;46330;50.822;7.126;2023-05-29T03:56:12;101422.72;;;12.42;84.50
9141;BME280;46330;50.822;7.126;2023-05-29T03:58:42;101417.59;;;12.33;85.16
9141;BME280;46330;50.822;7.126;2023-05-29T04:01:11;101417.53;;;12.39;84.74
9141;BME280;46330;50.822;7.126;2023-05-29T04:03:39;101435.81;;;12.44;84.90
9141;BME280;46330;50.822;7.126;2023-05-29T04:06:07;101428.13;;;12.30;85.04
9141;BME280;46330;50.822;7.126;2023-05-29T04:08:35;101422.66;;;12.47;84.79
9141;BME280;46330;50.822;7.126;2023-05-29T04:11:04;101419.16;;;12.48;84.47
9141;BME280;46330;50.822;7.126;2023-05-29T04:13:32;101430.56;;;12.44;83.92
9141;BME280;46330;50.822;7.126;2023-05-29T04:16:01;101439.31;;;12.44;84.38
9141;BME280;46330;50.822;7.126;2023-05-29T04:18:29;101435.63;;;12.57;83.48
9141;BME280;46330;50.822;7.126;2023-05-29T04:20:58;101426.78;;;12.63;83.21
9141;BME280;46330;50.822;7.126;2023-05-29T04:23:26;101438.16;;;12.63;83.79
9141;BME280;46330;50.822;7.126;2023-05-29T04:25:54;101441.59;;;12.67;83.46
9141;BME280;46330;50.822;7.126;2023-05-29T04:28:25;101443.38;;;12.65;83.60
9141;BME280;46330;50.822;7.126;2023-05-29T04:30:55;101439.06;;;12.61;83.93
9141;BME280;46330;50.822;7.126;2023-05-29T04:33:25;101447.56;;;12.78;83.42
9141;BME280;46330;50.822;7.126;2023-05-29T04:35:56;101448.09;;;13.00;82.64
9141;BME280;46330;50.822;7.126;2023-05-29T04:38:24;101451.47;;;13.09;81.64
9141;BME280;46330;50.822;7.126;2023-05-29T04:40:54;101456.88;;;12.95;81.71
9141;BME280;46330;50.822;7.126;2023-05-29T04:43:26;101460.31;;;13.01;81.88
9141;BME280;46330;50.822;7.126;2023-05-29T04:46:01;101461.66;;;13.29;80.70
9141;BME280;46330;50.822;7.126;2023-05-29T04:48:35;101461.44;;;13.41;79.60
9141;BME280;46330;50.822;7.126;2023-05-29T04:51:03;101468.53;;;13.34;79.54
9141;BME280;46330;50.822;7.126;2023-05-29T04:53:31;101460.50;;;13.43;79.16
9141;BME280;46330;50.822;7.126;2023-05-29T04:55:59;101470.66;;;13.63;78.69
9141;BME280;46330;50.822;7.126;2023-05-29T04:58:28;101475.88;;;13.66;78.02
9141;BME280;46330;50.822;7.126;2023-05-29T05:00:56;101472.53;;;13.55;78.29
9141;BME280;46330;50.822;7.126;2023-05-29T05:03:29;101476.72;;;13.67;78.00
9141;BME280;46330;50.822;7.126;2023-05-29T05:06:02;101480.66;;;13.89;76.86
9141;BME280;46330;50.822;7.126;2023-05-29T05:08:32;101485.53;;;14.10;75.67
9141;BME280;46330;50.822;7.126;2023-05-29T05:11:00;101483.28;;;13.90;76.23
9141;BME280;46330;50.822;7.126;2023-05-29T05:13:29;101484.41;;;14.22;75.04
9141;BME280;46330;50.822;7.126;2023-05-29T05:15:57;101476.66;;;14.14;75.08
9141;BME280;46330;50.822;7.126;2023-05-29T05:18:27;101488.59;;;14.30;74.09
9141;BME280;46330;50.822;7.126;2023-05-29T05:21:05;101487.50;;;14.42;74.36
9141;BME280;46330;50.822;7.126;2023-05-29T05:23:35;101489.84;;;14.56;73.84
9141;BME280;46330;50.822;7.126;2023-05-29T05:26:22;101490.75;;;14.93;72.41
9141;BME280;46330;50.822;7.126;2023-05-29T05:28:51;101488.41;;;14.81;72.05
9141;BME280;46330;50.822;7.126;2023-05-29T05:31:19;101485.81;;;15.16;71.09
9141;BME280;46330;50.822;7.126;2023-05-29T05:33:47;101483.88;;;14.86;71.92
9141;BME280;46330;50.822;7.126;2023-05-29T05:36:18;101494.84;;;15.04;70.75
9141;BME280;46330;50.822;7.126;2023-05-29T05:38:47;101482.78;;;15.31;70.30
9141;BME280;46330;50.822;7.126;2023-05-29T05:41:15;101500.13;;;15.40;69.91
9141;BME280;46330;50.822;7.126;2023-05-29T05:43:44;101492.75;;;15.54;68.21
9141;BME280;46330;50.822;7.126;2023-05-29T05:46:32;101503.00;;;15.31;69.60
9141;BME280;46330;50.822;7.126;2023-05-29T05:49:01;101510.00;;;15.67;66.87
9141;BME280;46330;50.822;7.126;2023-05-29T05:51:31;101507.28;;;16.02;66.00
9141;BME280;46330;50.822;7.126;2023-05-29T05:53:59;101511.50;;;16.08;65.30
9141;BME280;46330;50.822;7.126;2023-05-29T05:56:30;101507.38;;;15.99;65.69
9141;BME280;46330;50.822;7.126;2023-05-29T05:58:58;101509.16;;;15.97;65.96
9141;BME280;46330;50.822;7.126;2023-05-29T06:01:27;101501.06;;;16.65;63.97
9141;BME280;46330;50.822;7.126;2023-05-29T06:03:55;101502.75;;;16.67;62.85
9141;BME280;46330;50.822;7.126;2023-05-29T06:06:23;101505.69;;;16.57;63.46
9141;BME280;46330;50.822;7.126;2023-05-29T06:08:53;101512.56;;;16.92;62.85
9141;BME280;46330;50.822;7.126;2023-05-29T06:11:21;101515.63;;;16.78;62.85
9141;BME280;46330;50.822;7.126;2023-05-29T06:13:50;101521.63;;;16.83;62.22
9141;BME280;46330;50.822;7.126;2023-05-29T06:16:22;101522.41;;;17.41;61.03
9141;BME280;46330;50.822;7.126;2023-05-29T06:18:51;101524.44;;;17.33;59.67
9141;BME280;46330;50.822;7.126;2023-05-29T06:21:19;101526.84;;;17.66;58.26
9141;BME280;46330;50.822;7.126;2023-05-29T06:23:53;101525.19;;;18.13;57.12
9141;BME280;46330;50.822;7.126;2023-05-29T06:26:22;101520.31;;;17.50;59.31
9141;BME280;46330;50.822;7.126;2023-05-29T06:28:53;101525.97;;;17.66;58.65
9141;BME280;46330;50.822;7.126;2023-05-29T06:31:21;101522.41;;;17.93;58.15
9141;BME280;46330;50.822;7.126;2023-05-29T06:33:49;101521.28;;;18.47;56.53
9141;BME280;46330;50.822;7.126;2023-05-29T06:36:18;101520.53;;;18.20;56.81
9141;BME280;46330;50.822;7.126;2023-05-29T06:38:46;101525.09;;;18.86;55.35
9141;BME280;46330;50.822;7.126;2023-05-29T06:41:17;101523.97;;;19.35;53.44
9141;BME280;46330;50.822;7.126;2023-05-29T06:43:45;101530.16;;;18.92;55.05
9141;BME280;46330;50.822;7.126;2023-05-29T06:46:13;101535.00;;;18.81;55.37
9141;BME280;46330;50.822;7.126;2023-05-29T06:48:41;101532.69;;;19.17;54.07
9141;BME280;46330;50.822;7.126;2023-05-29T06:51:11;101533.94;;;19.72;51.71
9141;BME280;46330;50.822;7.126;2023-05-29T06:53:39;101533.94;;;19.72;52.06
9141;BME280;46330;50.822;7.126;2023-05-29T06:56:09;101532.28;;;19.90;51.62
9141;BME280;46330;50.822;7.126;2023-05-29T06:58:38;101528.75;;;20.09;51.21
9141;BME280;46330;50.822;7.126;2023-05-29T07:01:07;101524.16;;;20.13;50.66
9141;BME280;46330;50.822;7.126;2023-05-29T07:03:39;101525.56;;;20.60;49.39
9141;BME280;46330;50.822;7.126;2023-05-29T07:06:07;101527.03;;;19.48;51.27
9141;BME280;46330;50.822;7.126;2023-05-29T07:08:35;101517.94;;;20.71;49.41
9141;BME280;46330;50.822;7.126;2023-05-29T07:11:05;101523.34;;;20.51;50.07
9141;BME280;46330;50.822;7.126;2023-05-29T07:13:33;101531.31;;;20.51;50.45
9141;BME280;46330;50.822;7.126;2023-05-29T07:16:03;101529.72;;;20.84;47.94
9141;BME280;46330;50.822;7.126;2023-05-29T07:18:51;101533.13;;;20.69;49.47
9141;BME280;46330;50.822;7.126;2023-05-29T07:21:19;101531.78;;;20.97;48.12
9141;BME280;46330;50.822;7.126;2023-05-29T07:23:48;101527.84;;;20.86;49.10
9141;BME280;46330;50.822;7.126;2023-05-29T07:26:16;101522.72;;;22.07;46.25
9141;BME280;46330;50.822;7.126;2023-05-29T07:28:44;101529.34;;;21.47;47.44
9141;BME280;46330;50.822;7.126;2023-05-29T07:31:13;101522.63;;;21.74;46.27
9141;BME280;46330;50.822;7.126;2023-05-29T07:33:41;101529.69;;;22.58;45.13
9141;BME280;46330;50.822;7.126;2023-05-29T07:36:09;101527.06;;;22.08;45.86
9141;BME280;46330;50.822;7.126;2023-05-29T07:38:37;101532.41;;;21.56;46.41
9141;BME280;46330;50.822;7.126;2023-05-29T07:41:06;101529.22;;;22.82;44.36
9141;BME280;46330;50.822;7.126;2023-05-29T07:43:36;101527.34;;;22.84;42.64
9141;BME280;46330;50.822;7.126;2023-05-29T07:46:06;101538.38;;;22.94;43.25
9141;BME280;46330;50.822;7.126;2023-05-29T07:48:39;101541.81;;;22.96;43.57
9141;BME280;46330;50.822;7.126;2023-05-29T07:51:07;101542.72;;;23.26;42.89
9141;BME280;46330;50.822;7.126;2023-05-29T07:53:39;101536.16;;;21.52;45.66
9141;BME280;46330;50.822;7.126;2023-05-29T07:56:07;101544.53;;;22.30;44.77
9141;BME280;46330;50.822;7.126;2023-05-29T07:58:35;101541.75;;;22.82;43.92
9141;BME280;46330;50.822;7.126;2023-05-29T08:01:03;101543.59;;;22.95;43.76
9141;BME280;46330;50.822;7.126;2023-05-29T08:03:32;101544.22;;;23.32;43.32
9141;BME280;46330;50.822;7.126;2023-05-29T08:06:21;101549.13;;;23.99;40.71
9141;BME280;46330;50.822;7.126;2023-05-29T08:08:49;101541.56;;;23.00;43.29
9141;BME280;46330;50.822;7.126;2023-05-29T08:11:19;101542.41;;;22.85;42.63
9141;BME280;46330;50.822;7.126;2023-05-29T08:13:48;101541.72;;;23.13;42.82
9141;BME280;46330;50.822;7.126;2023-05-29T08:16:17;101545.50;;;22.45;44.29
9141;BME280;46330;50.822;7.126;2023-05-29T08:18:45;101540.78;;;22.50;44.13
9141;BME280;46330;50.822;7.126;2023-05-29T08:21:12;101549.88;;;23.41;42.36
9141;BME280;46330;50.822;7.126;2023-05-29T08:23:42;101537.97;;;24.06;41.26
9141;BME280;46330;50.822;7.126;2023-05-29T08:26:10;101545.94;;;24.36;40.21
9141;BME280;46330;50.822;7.126;2023-05-29T08:28:39;101546.53;;;23.97;41.01
9141;BME280;46330;50.822;7.126;2023-05-29T08:31:08;101540.44;;;24.09;39.92
9141;BME280;46330;50.822;7.126;2023-05-29T08:33:36;101535.91;;;24.12;39.54
9141;BME280;46330;50.822;7.126;2023-05-29T08:36:04;101532.72;;;24.76;39.49
9141;BME280;46330;50.822;7.126;2023-05-29T08:38:32;101542.03;;;25.11;38.34
9141;BME280;46330;50.822;7.126;2023-05-29T08:41:02;101533.88;;;25.00;38.59
9141;BME280;46330;50.822;7.126;2023-05-29T08:43:31;101541.72;;;24.60;39.72
9141;BME280;46330;50.822;7.126;2023-05-29T08:46:01;101533.41;;;24.65;39.52
9141;BME280;46330;50.822;7.126;2023-05-29T08:48:30;101534.19;;;24.81;37.61
9141;BME280;46330;50.822;7.126;2023-05-29T08:51:01;101539.91;;;26.22;35.63
9141;BME280;46330;50.822;7.126;2023-05-29T08:53:30;101535.22;;;25.46;38.02
9141;BME280;46330;50.822;7.126;2023-05-29T08:55:59;101531.81;;;26.47;35.96
9141;BME280;46330;50.822;7.126;2023-05-29T08:58:30;101535.06;;;25.08;37.90
9141;BME280;46330;50.822;7.126;2023-05-29T09:00:59;101529.81;;;25.60;37.46
9141;BME280;46330;50.822;7.126;2023-05-29T09:03:27;101533.38;;;25.34;36.34
9141;BME280;46330;50.822;7.126;2023-05-29T09:05:58;101531.47;;;26.01;36.39
9141;BME280;46330;50.822;7.126;2023-05-29T09:08:27;101534.28;;;26.12;36.05
9141;BME280;46330;50.822;7.126;2023-05-29T09:10:55;101528.44;;;25.41;37.02
9141;BME280;46330;50.822;7.126;2023-05-29T09:13:24;101527.88;;;26.27;36.79
9141;BME280;46330;50.822;7.126;2023-05-29T09:15:57;101532.44;;;25.87;37.69
9141;BME280;46330;50.822;7.126;2023-05-29T09:18:29;101527.25;;;26.72;35.58
9141;BME280;46330;50.822;7.126;2023-05-29T09:20:58;101533.41;;;27.35;34.91
9141;BME280;46330;50.822;7.126;2023-05-29T09:23:29;101524.75;;;26.95;34.35
9141;BME280;46330;50.822;7.126;2023-05-29T09:25:57;101526.25;;;26.99;34.16
9141;BME280;46330;50.822;7.126;2023-05-29T09:28:25;101525.69;;;26.57;34.13
9141;BME280;46330;50.822;7.126;2023-05-29T09:30:57;101524.50;;;26.61;34.21
9141;BME280;46330;50.822;7.126;2023-05-29T09:33:25;101525.50;;;26.23;35.42
9141;BME280;46330;50.822;7.126;2023-05-29T09:35:53;101529.59;;;27.02;35.31
9141;BME280;46330;50.822;7.126;2023-05-29T09:38:22;101534.44;;;26.85;36.03
9141;BME280;46330;50.822;7.126;2023-05-29T09:41:09;101530.19;;;27.06;34.64
9141;BME280;46330;50.822;7.126;2023-05-29T09:43:38;101520.72;;;27.60;33.57
9141;BME280;46330;50.822;7.126;2023-05-29T09:46:14;101523.47;;;26.88;35.02
9141;BME280;46330;50.822;7.126;2023-05-29T09:48:44;101516.03;;;27.97;34.10
9141;BME280;46330;50.822;7.126;2023-05-29T09:51:19;101526.72;;;27.16;35.07
9141;BME280;46330;50.822;7.126;2023-05-29T09:53:48;101523.84;;;27.31;35.67
9141;BME280;46330;50.822;7.126;2023-05-29T09:56:17;101530.03;;;27.20;35.11
9141;BME280;46330;50.822;7.126;2023-05-29T09:58:45;101522.34;;;27.03;35.58
9141;BME280;46330;50.822;7.126;2023-05-29T10:01:15;101523.34;;;27.25;34.24
9141;BME280;46330;50.822;7.126;2023-05-29T10:03:43;101513.66;;;26.12;36.56
9141;BME280;46330;50.822;7.126;2023-05-29T10:06:16;101510.66;;;26.55;36.68
9141;BME280;46330;50.822;7.126;2023-05-29T10:08:46;101518.41;;;26.34;36.65
9141;BME280;46330;50.822;7.126;2023-05-29T10:11:20;101519.66;;;26.54;36.44
9141;BME280;46330;50.822;7.126;2023-05-29T10:13:52;101519.06;;;26.99;36.23
9141;BME280;46330;50.822;7.126;2023-05-29T10:16:22;101511.59;;;26.66;35.85
9141;BME280;46330;50.822;7.126;2023-05-29T10:18:54;101502.22;;;26.72;36.87
9141;BME280;46330;50.822;7.126;2023-05-29T10:21:25;101508.31;;;26.99;35.42
9141;BME280;46330;50.822;7.126;2023-05-29T10:23:54;101513.69;;;27.23;34.98
9141;BME280;46330;50.822;7.126;2023-05-29T10:26:24;101513.72;;;26.87;36.27
9141;BME280;46330;50.822;7.126;2023-05-29T10:28:59;101522.50;;;27.49;34.79
9141;BME280;46330;50.822;7.126;2023-05-29T10:31:38;101515.34;;;27.13;35.20
9141;BME280;46330;50.822;7.126;2023-05-29T10:34:18;101513.97;;;28.01;34.18
9141;BME280;46330;50.822;7.126;2023-05-29T10:36:56;101519.09;;;27.93;34.56
9141;BME280;46330;50.822;7.126;2023-05-29T10:39:27;101519.75;;;28.18;33.74
9141;BME280;46330;50.822;7.126;2023-05-29T10:41:55;101514.25;;;28.53;32.99
9141;BME280;46330;50.822;7.126;2023-05-29T10:44:40;101509.66;;;27.87;35.11
9141;BME280;46330;50.822;7.126;2023-05-29T10:47:09;101514.50;;;28.17;34.52
9141;BME280;46330;50.822;7.126;2023-05-29T10:49:39;101510.06;;;27.35;35.49
9141;BME280;46330;50.822;7.126;2023-05-29T10:52:18;101507.72;;;27.89;34.60
9141;BME280;46330;50.822;7.126;2023-05-29T10:54:51;101505.00;;;27.43;34.87
9141;BME280;46330;50.822;7.126;2023-05-29T10:57:23;101494.34;;;28.67;33.14
9141;BME280;46330;50.822;7.126;2023-05-29T11:00:02;101494.69;;;27.72;35.22
9141;BME280;46330;50.822;7.126;2023-05-29T11:02:38;101479.97;;;27.89;34.86
9141;BME280;46330;50.822;7.126;2023-05-29T11:05:20;101489.41;;;28.27;33.58
9141;BME280;46330;50.822;7.126;2023-05-29T11:07:53;101491.88;;;28.19;32.68
9141;BME280;46330;50.822;7.126;2023-05-29T11:10:56;101488.44;;;28.40;34.77
9141;BME280;46330;50.822;7.126;2023-05-29T11:16:13;101490.16;;;28.18;34.44
9141;BME280;46330;50.822;7.126;2023-05-29T11:18:44;101490.03;;;28.31;33.96
9141;BME280;46330;50.822;7.126;2023-05-29T11:21:22;101491.34;;;28.03;34.82
9141;BME280;46330;50.822;7.126;2023-05-29T11:23:51;101492.03;;;26.90;35.96
9141;BME280;46330;50.822;7.126;2023-05-29T11:26:22;101489.19;;;27.62;35.17
9141;BME280;46330;50.822;7.126;2023-05-29T11:28:52;101485.06;;;27.69;34.56
9141;BME280;46330;50.822;7.126;2023-05-29T11:31:20;101487.03;;;28.90;34.20
9141;BME280;46330;50.822;7.126;2023-05-29T11:33:50;101486.06;;;29.02;32.69
9141;BME280;46330;50.822;7.126;2023-05-29T11:36:23;101489.94;;;27.41;33.76
9141;BME280;46330;50.822;7.126;2023-05-29T11:38:51;101485.38;;;28.44;32.26
9141;BME280;46330;50.822;7.126;2023-05-29T11:41:19;101473.16;;;28.18;32.44
9141;BME280;46330;50.822;7.126;2023-05-29T11:43:56;101472.47;;;27.81;34.14
9141;BME280;46330;50.822;7.126;2023-05-29T11:46:25;101479.47;;;27.95;33.14
9141;BME280;46330;50.822;7.126;2023-05-29T11:48:56;101480.69;;;27.80;33.72
9141;BME280;46330;50.822;7.126;2023-05-29T11:51:24;101479.25;;;28.09;34.17
9141;BME280;46330;50.822;7.126;2023-05-29T11:53:52;101482.59;;;28.23;32.86
9141;BME280;46330;50.822;7.126;2023-05-29T11:56:24;101478.19;;;28.22;34.91
9141;BME280;46330;50.822;7.126;2023-05-29T11:58:53;101472.50;;;28.59;33.94
9141;BME280;46330;50.822;7.126;2023-05-29T12:01:24;101467.47;;;27.76;34.59
9141;BME280;46330;50.822;7.126;2023-05-29T12:03:52;101458.31;;;27.90;34.57
9141;BME280;46330;50.822;7.126;2023-05-29T12:06:35;101476.97;;;27.58;34.71
9141;BME280;46330;50.822;7.126;2023-05-29T12:09:04;101470.97;;;28.23;34.13
9141;BME280;46330;50.822;7.126;2023-05-29T12:11:34;101467.03;;;28.38;34.57
9141;BME280;46330;50.822;7.126;2023-05-29T12:14:02;101468.16;;;29.01;33.79
9141;BME280;46330;50.822;7.126;2023-05-29T12:16:31;101465.25;;;27.36;34.90
9141;BME280;46330;50.822;7.126;2023-05-29T12:19:00;101465.09;;;28.07;34.29
9141;BME280;46330;50.822;7.126;2023-05-29T12:21:28;101462.59;;;29.24;33.30
9141;BME280;46330;50.822;7.126;2023-05-29T12:23:58;101460.22;;;29.31;33.28
9141;BME280;46330;50.822;7.126;2023-05-29T12:26:29;101456.97;;;29.69;31.20
9141;BME280;46330;50.822;7.126;2023-05-29T12:29:02;101454.50;;;29.24;30.93
9141;BME280;46330;50.822;7.126;2023-05-29T12:31:32;101463.75;;;29.00;31.58
9141;BME280;46330;50.822;7.126;2023-05-29T12:34:01;101456.22;;;27.83;33.18
9141;BME280;46330;50.822;7.126;2023-05-29T12:36:31;101468.00;;;28.15;32.68
9141;BME280;46330;50.822;7.126;2023-05-29T12:39:05;101467.25;;;28.02;34.21
9141;BME280;46330;50.822;7.126;2023-05-29T12:41:36;101465.31;;;28.15;34.73
9141;BME280;46330;50.822;7.126;2023-05-29T12:44:05;101463.41;;;28.93;31.97
9141;BME280;46330;50.822;7.126;2023-05-29T12:46:38;101467.69;;;27.39;34.69
9141;BME280;46330;50.822;7.126;2023-05-29T12:49:13;101459.28;;;27.78;34.92
9141;BME280;46330;50.822;7.126;2023-05-29T12:51:41;101459.84;;;27.59;35.26
9141;BME280;46330;50.822;7.126;2023-05-29T12:54:12;101463.94;;;27.87;32.81
9141;BME280;46330;50.822;7.126;2023-05-29T12:56:41;101469.59;;;28.51;31.97
9141;BME280;46330;50.822;7.126;2023-05-29T12:59:10;101474.13;;;28.28;32.09
9141;BME280;46330;50.822;7.126;2023-05-29T13:01:38;101471.66;;;27.92;32.80
9141;BME280;46330;50.822;7.126;2023-05-29T13:04:07;101467.28;;;28.57;33.53
9141;BME280;46330;50.822;7.126;2023-05-29T13:06:37;101465.75;;;28.87;31.10
9141;BME280;46330;50.822;7.126;2023-05-29T13:09:06;101458.22;;;28.25;33.08
9141;BME280;46330;50.822;7.126;2023-05-29T13:11:36;101459.16;;;29.11;31.30
9141;BME280;46330;50.822;7.126;2023-05-29T13:14:04;101463.88;;;27.06;33.89
9141;BME280;46330;50.822;7.126;2023-05-29T13:16:32;101460.84;;;27.35;33.22
9141;BME280;46330;50.822;7.126;2023-05-29T13:19:01;101447.50;;;28.14;31.99